createdAt,value
2019-02-16T14:28:07.534Z,29.46
2019-02-16T14:30:45.859Z,21.68
2019-02-16T14:31:46.064Z,21.08
2019-02-16T14:33:18.896Z,21.58
2019-02-16T14:34:19.094Z,21.88
2019-02-16T14:35:52.004Z,23.07
2019-02-16T14:36:52.258Z,21.59
2019-02-16T14:57:57.051Z,21.17
2019-02-16T14:58:57.258Z,22.28
2019-02-16T14:59:57.446Z,23.87
2019-02-16T15:00:57.644Z,25.67
2019-02-16T15:01:57.846Z,22.45
2019-02-16T15:02:58.057Z,22.62
2019-02-16T15:03:58.249Z,20.73
2019-02-16T15:04:58.444Z,22.34
2019-02-16T15:05:58.640Z,22.85
2019-02-16T15:06:58.829Z,22.84
2019-02-16T15:07:59.020Z,21.44
2019-02-16T15:08:59.210Z,21.04
2019-02-16T15:09:59.401Z,22.64
2019-02-16T15:10:59.584Z,25.77
2019-02-16T15:11:59.767Z,24.77
2019-02-16T15:12:59.967Z,24.37
2019-02-16T15:14:00.162Z,23.37
2019-02-16T15:15:00.369Z,22.67
2019-02-16T15:16:00.557Z,25.68
2019-02-16T15:17:00.742Z,24.29
2019-02-16T15:18:00.957Z,27.20
2019-02-16T15:19:01.156Z,26.01
2019-02-16T15:20:01.341Z,25.61
2019-02-16T15:21:01.536Z,26.31
2019-02-16T15:22:02.855Z,25.82
2019-02-16T15:23:03.007Z,25.52
2019-02-16T15:24:03.197Z,26.43
2019-02-16T15:25:03.339Z,27.15
2019-02-16T15:26:03.489Z,29.28
2019-02-16T15:27:03.642Z,28.58
2019-02-16T15:28:03.778Z,27.59
2019-02-16T15:29:03.946Z,31.33
2019-02-16T15:30:04.072Z,31.54
2019-02-16T15:31:04.202Z,30.73
2019-02-16T15:32:04.344Z,29.63
2019-02-16T15:33:04.509Z,28.14
2019-02-16T15:34:04.689Z,28.45
2019-02-16T15:35:04.843Z,28.08
2019-02-16T15:41:09.383Z,30.99
2019-02-16T15:42:27.406Z,31.73
2019-02-16T16:24:33.737Z,39.74
2019-02-16T16:26:52.254Z,40.25
2019-02-16T16:28:11.420Z,41.16
2019-02-16T16:43:04.704Z,33.23
2019-02-16T16:44:13.213Z,32.21
2019-02-16T16:47:25.261Z,30.61
2019-02-16T16:48:32.387Z,29.79
